createdAt,value
2022-08-27T00:00:38.635Z,16.06
2022-08-27T00:01:42.772Z,13.56
2022-08-27T00:02:48.696Z,14.31
2022-08-27T00:04:01.523Z,9.63
2022-08-27T00:05:16.517Z,13.69
2022-08-27T00:06:20.522Z,14.87
2022-08-27T00:07:26.150Z,16.50
2022-08-27T00:08:30.386Z,15.31
2022-08-27T00:09:41.934Z,15.25
2022-08-27T00:10:43.051Z,15.13
2022-08-27T00:11:48.784Z,13.62
2022-08-27T00:13:11.615Z,15.44
2022-08-27T00:14:19.486Z,8.56
2022-08-27T00:15:26.843Z,11.75
2022-08-27T00:16:32.520Z,16.75
2022-08-27T00:17:37.009Z,16.12
2022-08-27T00:18:47.809Z,16.56
2022-08-27T00:19:50.621Z,16.62
2022-08-27T00:20:57.557Z,14.94
2022-08-27T00:22:01.839Z,17.25
2022-08-27T00:23:07.556Z,16.37
2022-08-27T00:24:12.156Z,13.31
2022-08-27T00:25:16.837Z,13.44
2022-08-27T00:26:22.098Z,15.44
2022-08-27T00:27:26.449Z,11.81
2022-08-27T00:28:30.755Z,15.63
2022-08-27T00:29:34.907Z,14.06
2022-08-27T00:30:40.649Z,14.75
2022-08-27T00:31:44.967Z,17.75
2022-08-27T00:32:50.683Z,18.50
2022-08-27T00:33:55.042Z,14.69
2022-08-27T00:35:00.341Z,16.00
2022-08-27T00:36:06.036Z,14.87
2022-08-27T00:37:10.581Z,10.13
2022-08-27T00:38:15.330Z,18.25
2022-08-27T00:39:20.073Z,13.75
2022-08-27T00:40:32.895Z,17.56
2022-08-27T00:41:35.193Z,17.69
2022-08-27T00:42:39.287Z,17.81
2022-08-27T00:43:58.729Z,15.19
2022-08-27T00:45:03.458Z,15.50
2022-08-27T00:46:12.266Z,14.19
2022-08-27T00:47:19.771Z,15.06
2022-08-27T00:48:26.934Z,12.75
2022-08-27T00:49:36.646Z,16.56
2022-08-27T00:50:45.181Z,14.19
2022-08-27T00:51:52.250Z,15.19
2022-08-27T00:53:03.521Z,15.50
2022-08-27T00:54:10.273Z,17.75
2022-08-27T00:55:18.209Z,11.94
2022-08-27T00:56:31.200Z,17.69
2022-08-27T00:57:38.273Z,13.88
2022-08-27T00:58:45.756Z,14.44
2022-08-27T01:00:02.373Z,16.62
2022-08-27T01:01:02.850Z,15.56
2022-08-27T01:02:07.012Z,14.31
2022-08-27T01:03:14.696Z,14.81
2022-08-27T01:04:20.067Z,12.75
2022-08-27T01:05:28.313Z,15.00
2022-08-27T01:06:36.821Z,16.69
2022-08-27T01:07:45.286Z,16.75
2022-08-27T01:08:55.356Z,17.00
2022-08-27T01:10:02.232Z,17.56
2022-08-27T01:11:08.707Z,17.44
2022-08-27T01:12:14.098Z,16.75
2022-08-27T01:13:54.453Z,13.38
2022-08-27T01:14:27.451Z,18.94
2022-08-27T01:15:35.099Z,16.25
2022-08-27T01:16:43.731Z,18.81
2022-08-27T01:17:49.904Z,15.56
2022-08-27T01:18:58.216Z,17.31
2022-08-27T01:20:07.919Z,19.62
2022-08-27T01:21:29.926Z,14.13
2022-08-27T01:22:47.710Z,16.44
2022-08-27T01:24:03.645Z,18.75
2022-08-27T01:25:13.727Z,15.44
2022-08-27T01:26:24.103Z,16.56
2022-08-27T01:27:32.140Z,18.75
2022-08-27T01:28:38.391Z,17.31
2022-08-27T01:29:47.653Z,17.56
2022-08-27T01:30:52.287Z,18.25
2022-08-27T01:32:02.853Z,18.19
2022-08-27T01:33:09.900Z,14.25
2022-08-27T01:34:15.789Z,18.87
2022-08-27T01:35:20.854Z,15.88
2022-08-27T01:36:28.104Z,15.19
2022-08-27T01:37:31.870Z,16.87
2022-08-27T01:38:35.861Z,15.94
2022-08-27T01:39:42.211Z,19.94
2022-08-27T01:40:48.170Z,14.38
2022-08-27T01:41:52.519Z,20.37
2022-08-27T01:42:58.134Z,18.94
2022-08-27T01:44:02.245Z,16.12
2022-08-27T01:45:32.030Z,16.19
2022-08-27T01:46:31.931Z,17.12
2022-08-27T01:47:37.383Z,17.19
2022-08-27T01:48:41.524Z,18.50
2022-08-27T01:49:48.416Z,19.87
2022-08-27T01:50:52.951Z,18.87
2022-08-27T01:51:56.956Z,17.06
2022-08-27T01:53:07.347Z,21.50
2022-08-27T01:54:11.443Z,20.75
2022-08-27T01:55:18.525Z,17.94
2022-08-27T01:56:23.159Z,21.06
2022-08-27T01:57:27.713Z,15.81
2022-08-27T01:58:33.281Z,16.31
2022-08-27T01:59:39.646Z,21.31
2022-08-27T02:00:47.336Z,17.56
2022-08-27T02:01:54.903Z,18.19
2022-08-27T02:02:59.991Z,20.06
2022-08-27T02:04:08.951Z,15.69
2022-08-27T02:05:44.913Z,16.69
2022-08-27T02:06:24.885Z,15.13
2022-08-27T02:07:29.120Z,17.31
2022-08-27T02:08:34.769Z,18.06
2022-08-27T02:09:42.066Z,17.06
2022-08-27T02:10:52.385Z,18.06
2022-08-27T02:11:57.910Z,19.12
2022-08-27T02:13:02.127Z,15.94
2022-08-27T02:14:12.776Z,17.00
2022-08-27T02:15:17.453Z,17.87
2022-08-27T02:16:22.342Z,15.19
2022-08-27T02:17:26.622Z,20.50
2022-08-27T02:18:32.256Z,14.69
2022-08-27T02:19:39.120Z,19.75
2022-08-27T02:20:45.955Z,16.25
2022-08-27T02:21:54.144Z,20.06
2022-08-27T02:22:59.268Z,17.50
2022-08-27T02:24:03.807Z,19.56
2022-08-27T02:25:10.523Z,22.06
2022-08-27T02:26:16.170Z,14.81
2022-08-27T02:27:22.589Z,20.56
2022-08-27T02:28:28.218Z,21.37
2022-08-27T02:29:32.268Z,17.44
2022-08-27T02:30:37.201Z,20.56
2022-08-27T02:31:41.339Z,19.69
2022-08-27T02:32:45.507Z,21.87
2022-08-27T02:33:49.769Z,21.94
2022-08-27T02:34:56.672Z,19.56
2022-08-27T02:36:00.906Z,22.81
2022-08-27T02:37:06.672Z,21.75
2022-08-27T02:38:13.115Z,21.00
2022-08-27T02:39:17.443Z,22.37
2022-08-27T02:40:24.066Z,16.37
2022-08-27T02:41:29.465Z,20.62
2022-08-27T02:42:33.700Z,18.44
2022-08-27T02:43:41.868Z,15.75
2022-08-27T02:44:46.899Z,23.94
2022-08-27T02:45:51.013Z,19.62
2022-08-27T02:46:58.230Z,19.25
2022-08-27T02:48:02.362Z,19.12
2022-08-27T02:49:10.611Z,18.50
2022-08-27T02:50:14.602Z,16.06
2022-08-27T02:51:21.277Z,21.19
2022-08-27T02:52:28.763Z,17.19
2022-08-27T02:53:34.001Z,17.62
2022-08-27T02:54:38.134Z,21.62
2022-08-27T02:55:43.326Z,20.00
2022-08-27T02:56:47.575Z,19.81
2022-08-27T02:57:51.792Z,19.44
2022-08-27T02:58:56.139Z,16.12
2022-08-27T03:00:01.746Z,19.06
2022-08-27T03:01:06.088Z,13.13
2022-08-27T03:02:12.453Z,20.75
2022-08-27T03:03:16.921Z,18.81
2022-08-27T03:04:32.796Z,16.81
2022-08-27T03:05:33.142Z,23.25
2022-08-27T03:06:37.393Z,21.19
2022-08-27T03:07:48.756Z,22.06
2022-08-27T03:08:53.667Z,22.31
2022-08-27T03:09:57.795Z,18.75
2022-08-27T03:11:01.941Z,22.81
2022-08-27T03:12:06.821Z,13.06
2022-08-27T03:13:12.674Z,22.94
2022-08-27T03:14:16.924Z,22.75
2022-08-27T03:15:22.742Z,21.00
2022-08-27T03:16:28.484Z,22.62
2022-08-27T03:17:32.661Z,18.87
2022-08-27T03:18:36.779Z,21.25
2022-08-27T03:19:40.961Z,20.81
2022-08-27T03:20:47.868Z,20.75
2022-08-27T03:21:54.618Z,21.62
2022-08-27T03:23:03.481Z,19.00
2022-08-27T03:24:11.666Z,19.56
2022-08-27T03:25:17.937Z,24.12
2022-08-27T03:26:26.719Z,17.67
2022-08-27T03:27:32.395Z,23.69
2022-08-27T03:28:36.604Z,20.00
2022-08-27T03:29:40.690Z,19.50
2022-08-27T03:31:57.647Z,20.62
2022-08-27T03:33:01.890Z,22.50
2022-08-27T03:34:07.598Z,16.69
2022-08-27T03:35:15.048Z,20.00
2022-08-27T03:36:20.602Z,15.75
2022-08-27T03:37:24.810Z,16.19
2022-08-27T03:38:28.901Z,16.69
2022-08-27T03:39:34.517Z,23.31
2022-08-27T03:40:40.619Z,24.31
2022-08-27T03:41:54.671Z,21.12
2022-08-27T03:42:50.514Z,20.37
2022-08-27T03:43:54.623Z,17.37
2022-08-27T03:44:58.804Z,19.12
2022-08-27T03:46:03.166Z,20.94
2022-08-27T03:47:10.885Z,21.06
2022-08-27T03:48:34.250Z,16.94
2022-08-27T03:49:24.738Z,17.12
2022-08-27T03:50:30.520Z,18.56
2022-08-27T03:51:34.602Z,19.44
2022-08-27T03:52:39.058Z,18.44
2022-08-27T03:53:46.328Z,16.69
2022-08-27T03:54:50.379Z,17.50
2022-08-27T03:55:55.924Z,14.69
2022-08-27T03:57:01.929Z,19.87
2022-08-27T03:58:07.491Z,18.75
2022-08-27T03:59:11.609Z,18.81
2022-08-27T04:00:17.856Z,20.44
2022-08-27T04:01:22.274Z,20.06
2022-08-27T04:02:28.287Z,19.81
2022-08-27T04:03:34.613Z,15.88
2022-08-27T04:04:39.568Z,19.31
2022-08-27T04:05:45.249Z,15.81
2022-08-27T04:06:51.213Z,17.69
2022-08-27T04:07:55.179Z,17.31
2022-08-27T04:08:59.298Z,15.94
2022-08-27T04:10:03.968Z,12.44
2022-08-27T04:11:08.657Z,17.37
2022-08-27T04:12:12.761Z,18.44
2022-08-27T04:13:20.263Z,21.87
2022-08-27T04:14:27.425Z,17.44
2022-08-27T04:15:31.863Z,20.00
2022-08-27T04:16:39.759Z,16.37
2022-08-27T04:17:43.139Z,23.62
2022-08-27T04:18:47.361Z,13.81
2022-08-27T04:19:52.984Z,17.12
2022-08-27T04:20:57.057Z,19.94
2022-08-27T04:22:06.313Z,17.31
2022-08-27T04:23:10.377Z,21.19
2022-08-27T04:24:14.420Z,19.56
2022-08-27T04:25:20.152Z,16.25
2022-08-27T04:26:26.992Z,16.37
2022-08-27T04:27:34.151Z,18.12
2022-08-27T04:28:39.138Z,20.37
2022-08-27T04:29:43.536Z,19.94
2022-08-27T04:30:48.566Z,14.06
2022-08-27T04:31:52.940Z,20.75
2022-08-27T04:32:59.430Z,25.94
2022-08-27T04:34:03.626Z,29.12
2022-08-27T04:35:08.248Z,26.27
2022-08-27T04:36:13.906Z,22.31
2022-08-27T04:37:21.473Z,18.94
2022-08-27T04:38:23.899Z,27.87
2022-08-27T04:39:30.056Z,22.94
2022-08-27T04:40:34.436Z,27.44
2022-08-27T04:41:38.473Z,22.44
2022-08-27T04:42:43.062Z,21.06
2022-08-27T04:43:54.054Z,19.44
2022-08-27T04:44:58.186Z,22.37
2022-08-27T04:46:04.347Z,22.81
2022-08-27T04:47:11.550Z,23.19
2022-08-27T04:48:19.114Z,20.44
2022-08-27T04:49:23.376Z,19.69
2022-08-27T04:50:27.616Z,20.56
2022-08-27T04:51:31.912Z,22.06
2022-08-27T04:52:40.821Z,19.94
2022-08-27T04:53:41.918Z,22.06
2022-08-27T04:54:46.178Z,26.62
2022-08-27T04:55:53.463Z,20.69
2022-08-27T04:56:59.433Z,17.19
2022-08-27T04:58:06.081Z,22.31
2022-08-27T04:59:25.592Z,14.19
2022-08-27T05:00:25.129Z,21.69
2022-08-27T05:01:31.943Z,20.50
2022-08-27T05:02:38.916Z,17.75
2022-08-27T05:03:43.359Z,14.63
2022-08-27T05:04:49.135Z,16.19
2022-08-27T05:06:45.336Z,18.56
2022-08-27T05:07:09.756Z,16.00
2022-08-27T05:08:21.243Z,15.63
2022-08-27T05:09:27.883Z,32.40
2022-08-27T05:10:45.147Z,16.06
2022-08-27T05:11:49.407Z,24.44
2022-08-27T05:13:08.239Z,24.81
2022-08-27T05:14:07.154Z,28.50
2022-08-27T05:15:58.276Z,32.81
2022-08-27T05:16:45.407Z,13.56
2022-08-27T05:17:48.696Z,18.00
2022-08-27T05:18:56.321Z,18.87
2022-08-27T05:20:02.494Z,17.56
2022-08-27T05:21:07.187Z,18.81
2022-08-27T05:22:17.623Z,13.50
2022-08-27T05:23:26.507Z,17.69
2022-08-27T05:24:55.247Z,21.25
2022-08-27T05:25:44.515Z,20.75
2022-08-27T05:26:52.030Z,20.69
2022-08-27T05:28:09.483Z,24.31
2022-08-27T05:29:10.357Z,22.13
2022-08-27T05:30:17.544Z,26.12
2022-08-27T05:31:28.237Z,21.81
2022-08-27T05:32:32.554Z,19.19
2022-08-27T05:33:42.745Z,13.19
2022-08-27T05:34:48.700Z,18.00
2022-08-27T05:35:55.573Z,18.94
2022-08-27T05:37:06.579Z,16.62
2022-08-27T05:39:19.445Z,18.87
2022-08-27T05:40:29.574Z,16.50
2022-08-27T05:42:02.537Z,15.38
2022-08-27T05:42:54.947Z,14.25
2022-08-27T05:44:13.778Z,16.81
2022-08-27T05:45:16.348Z,14.69
2022-08-27T05:48:19.740Z,17.12
2022-08-27T05:48:51.388Z,21.87
2022-08-27T05:50:03.870Z,11.44
2022-08-27T05:51:22.590Z,14.87
2022-08-27T05:52:25.484Z,14.75
2022-08-27T05:54:55.814Z,20.88
2022-08-27T05:55:59.920Z,19.69
2022-08-27T05:57:04.064Z,16.87
2022-08-27T05:58:11.198Z,9.56
2022-08-27T05:59:28.464Z,13.13
2022-08-27T06:00:33.430Z,12.44
2022-08-27T06:01:44.548Z,15.94
2022-08-27T06:02:50.264Z,11.44
2022-08-27T06:03:54.385Z,10.63
2022-08-27T06:04:58.679Z,10.31
2022-08-27T06:06:05.873Z,10.44
2022-08-27T06:07:14.044Z,14.19
2022-08-27T06:08:28.219Z,14.06
2022-08-27T06:09:29.888Z,14.44
2022-08-27T06:10:34.177Z,15.00
2022-08-27T06:11:41.704Z,18.31
2022-08-27T06:12:45.859Z,16.44
2022-08-27T06:13:51.607Z,15.06
2022-08-27T06:14:58.816Z,14.63
2022-08-27T06:16:15.371Z,12.81
2022-08-27T06:17:19.182Z,13.69
2022-08-27T06:18:23.198Z,13.56
2022-08-27T06:19:30.325Z,13.31
2022-08-27T06:20:34.860Z,13.44
2022-08-27T06:21:40.203Z,14.25
2022-08-27T06:22:44.477Z,20.94
2022-08-27T06:23:50.783Z,14.75
2022-08-27T06:25:12.337Z,15.63
2022-08-27T06:26:19.361Z,18.44
2022-08-27T06:27:23.474Z,27.19
2022-08-27T06:28:33.259Z,18.75
2022-08-27T06:29:37.422Z,18.19
2022-08-27T06:32:31.460Z,17.75
2022-08-27T06:33:40.314Z,45.56
2022-08-27T06:34:44.452Z,33.56
2022-08-27T06:35:48.464Z,57.94
2022-08-27T06:36:52.857Z,35.38
2022-08-27T06:38:01.025Z,44.00
2022-08-27T06:39:10.604Z,36.81
2022-08-27T06:40:16.398Z,38.81
2022-08-27T06:41:23.448Z,74.80
2022-08-27T06:42:29.858Z,50.25
2022-08-27T06:43:37.028Z,24.25
2022-08-27T06:44:44.549Z,22.69
2022-08-27T06:45:52.257Z,22.25
2022-08-27T06:47:03.268Z,24.25
2022-08-27T06:48:07.877Z,25.37
2022-08-27T06:49:13.722Z,21.37
2022-08-27T06:50:27.125Z,12.44
2022-08-27T06:51:37.192Z,17.44
2022-08-27T06:52:41.193Z,17.94
2022-08-27T06:53:47.510Z,13.56
2022-08-27T06:54:59.582Z,18.31
2022-08-27T06:56:04.227Z,12.50
2022-08-27T06:57:08.254Z,16.69
2022-08-27T06:58:13.392Z,17.81
2022-08-27T06:59:20.812Z,18.81
2022-08-27T07:00:25.740Z,19.25
2022-08-27T07:01:35.842Z,17.37
2022-08-27T07:02:49.066Z,19.06
2022-08-27T07:03:56.063Z,18.87
2022-08-27T07:05:01.440Z,14.44
2022-08-27T07:06:09.295Z,13.56
2022-08-27T07:07:14.869Z,18.81
2022-08-27T07:08:22.409Z,12.06
2022-08-27T07:09:26.616Z,13.00
2022-08-27T07:10:31.779Z,15.63
2022-08-27T07:11:36.492Z,11.63
2022-08-27T07:12:40.760Z,14.94
2022-08-27T07:13:49.534Z,23.12
2022-08-27T07:14:53.813Z,23.81
2022-08-27T07:15:59.432Z,28.69
2022-08-27T07:17:05.095Z,24.00
2022-08-27T07:18:12.380Z,26.62
2022-08-27T07:19:15.925Z,16.00
2022-08-27T07:20:22.690Z,20.56
2022-08-27T07:21:29.744Z,24.00
2022-08-27T07:22:34.436Z,18.31
2022-08-27T07:23:39.754Z,12.69
2022-08-27T07:24:44.061Z,17.44
2022-08-27T07:25:48.901Z,15.75
2022-08-27T07:27:09.642Z,13.19
2022-08-27T07:29:16.423Z,15.13
2022-08-27T07:30:21.913Z,16.56
2022-08-27T07:31:26.027Z,13.69
2022-08-27T07:32:30.513Z,13.00
2022-08-27T07:33:39.430Z,18.50
2022-08-27T07:34:47.154Z,19.69
2022-08-27T07:35:52.443Z,17.75
2022-08-27T07:36:58.186Z,16.94
2022-08-27T07:38:03.828Z,13.25
2022-08-27T07:39:30.364Z,15.25
2022-08-27T07:40:37.753Z,15.25
2022-08-27T07:41:45.365Z,12.75
2022-08-27T07:42:54.404Z,11.19
2022-08-27T07:44:00.256Z,14.56
2022-08-27T07:45:06.091Z,12.31
2022-08-27T07:46:10.870Z,12.63
2022-08-27T07:47:15.060Z,10.19
2022-08-27T07:48:19.256Z,15.81
2022-08-27T07:49:27.192Z,14.19
2022-08-27T07:50:33.090Z,13.31
2022-08-27T07:51:37.352Z,18.31
2022-08-27T07:52:41.567Z,18.25
2022-08-27T07:53:47.069Z,17.56
2022-08-27T07:54:53.962Z,14.44
2022-08-27T07:56:03.933Z,13.38
2022-08-27T07:57:08.537Z,13.56
2022-08-27T07:58:16.897Z,15.44
2022-08-27T07:59:19.074Z,10.56
2022-08-27T08:00:24.984Z,14.44
2022-08-27T08:01:30.728Z,12.31
2022-08-27T08:02:34.905Z,9.13
2022-08-27T08:03:39.604Z,9.63
2022-08-27T08:04:43.774Z,10.25
2022-08-27T08:05:47.946Z,9.56
2022-08-27T08:06:53.059Z,9.19
2022-08-27T08:07:57.171Z,9.25
2022-08-27T08:09:01.283Z,8.00
2022-08-27T08:10:09.285Z,8.88
2022-08-27T08:11:16.161Z,11.31
2022-08-27T08:12:26.403Z,10.75
2022-08-27T08:13:25.929Z,11.12
2022-08-27T08:14:31.373Z,11.69
2022-08-27T08:15:35.659Z,8.06
2022-08-27T08:16:40.182Z,10.75
2022-08-27T08:17:44.605Z,9.69
2022-08-27T08:18:48.707Z,12.06
2022-08-27T08:20:15.442Z,9.81
2022-08-27T08:21:04.830Z,9.88
2022-08-27T08:22:09.376Z,12.06
2022-08-27T08:23:13.592Z,10.94
2022-08-27T08:24:18.356Z,10.19
2022-08-27T08:25:22.686Z,12.50
2022-08-27T08:26:27.963Z,11.19
2022-08-27T08:27:32.186Z,10.69
2022-08-27T08:28:38.459Z,11.31
2022-08-27T08:29:42.583Z,11.88
2022-08-27T08:30:46.794Z,10.13
2022-08-27T08:31:50.842Z,11.00
2022-08-27T08:32:54.997Z,12.81
2022-08-27T08:33:59.097Z,10.50
2022-08-27T08:35:05.449Z,11.12
2022-08-27T08:36:12.404Z,12.00
2022-08-27T08:37:18.096Z,12.50
2022-08-27T08:38:23.830Z,10.88
2022-08-27T08:39:31.076Z,11.75
2022-08-27T08:40:46.715Z,13.44
2022-08-27T08:41:54.983Z,10.75
2022-08-27T08:43:12.002Z,10.44
2022-08-27T08:44:22.529Z,10.25
2022-08-27T08:45:31.669Z,15.06
2022-08-27T08:46:53.827Z,12.31
2022-08-27T08:48:06.787Z,11.12
2022-08-27T08:49:33.451Z,12.44
2022-08-27T08:50:56.669Z,10.63
2022-08-27T08:52:06.257Z,12.44
2022-08-27T08:53:19.171Z,12.94
2022-08-27T08:54:29.681Z,10.75
2022-08-27T08:55:42.644Z,11.88
2022-08-27T08:57:06.311Z,13.69
2022-08-27T08:58:18.849Z,12.44
2022-08-27T08:59:31.832Z,14.56
2022-08-27T09:00:37.344Z,14.13
2022-08-27T09:01:44.886Z,9.50
2022-08-27T09:02:54.291Z,12.31
2022-08-27T09:07:31.230Z,17.75
2022-08-27T09:08:44.719Z,16.31
2022-08-27T09:09:52.201Z,12.56
2022-08-27T09:11:13.591Z,13.75
2022-08-27T09:12:20.860Z,12.94
2022-08-27T09:13:35.671Z,12.31
2022-08-27T09:14:48.573Z,13.00
2022-08-27T09:15:58.434Z,11.31
2022-08-27T09:17:05.767Z,13.13
2022-08-27T09:18:18.109Z,12.19
2022-08-27T09:19:23.578Z,11.88
2022-08-27T09:20:25.969Z,11.12
2022-08-27T09:21:48.259Z,12.94
2022-08-27T09:23:26.338Z,10.44
2022-08-27T09:24:51.032Z,14.00
2022-08-27T09:25:55.189Z,15.00
2022-08-27T09:27:01.022Z,15.56
2022-08-27T09:28:08.187Z,13.94
2022-08-27T09:29:16.743Z,13.94
2022-08-27T09:30:28.616Z,13.31
2022-08-27T09:31:30.017Z,13.56
2022-08-27T09:32:35.227Z,13.25
2022-08-27T09:33:44.370Z,14.69
2022-08-27T09:34:51.970Z,11.81
2022-08-27T09:35:54.133Z,12.81
2022-08-27T09:37:04.220Z,14.00
2022-08-27T09:38:11.927Z,13.13
2022-08-27T09:39:18.200Z,16.31
2022-08-27T09:40:38.854Z,15.38
2022-08-27T09:41:52.676Z,12.63
2022-08-27T09:42:56.291Z,15.94
2022-08-27T09:44:09.066Z,15.56
2022-08-27T09:45:22.295Z,14.75
2022-08-27T09:46:33.713Z,14.44
2022-08-27T09:47:46.646Z,13.62
2022-08-27T09:48:52.267Z,15.31
2022-08-27T09:50:10.262Z,10.88
2022-08-27T09:51:21.871Z,13.44
2022-08-27T09:52:31.649Z,13.62
2022-08-27T09:53:45.644Z,13.13
2022-08-27T09:54:57.595Z,14.63
2022-08-27T09:56:09.498Z,15.19
2022-08-27T09:57:18.330Z,15.56
2022-08-27T09:58:31.294Z,12.94
2022-08-27T09:59:40.026Z,10.06
2022-08-27T10:00:45.740Z,9.25
2022-08-27T10:01:58.218Z,4.69
2022-08-27T10:03:09.700Z,8.81
2022-08-27T10:04:13.756Z,10.19
2022-08-27T10:05:22.427Z,12.69
2022-08-27T10:06:31.450Z,9.31
2022-08-27T10:07:47.430Z,11.06
2022-08-27T10:08:54.231Z,7.31
2022-08-27T10:10:10.220Z,11.38
2022-08-27T10:11:35.339Z,11.25
2022-08-27T10:12:57.138Z,8.38
2022-08-27T10:14:10.342Z,10.81
2022-08-27T10:15:15.426Z,13.19
2022-08-27T10:16:52.478Z,9.75
2022-08-27T10:18:17.392Z,18.81
2022-08-27T10:19:33.460Z,12.25
2022-08-27T10:21:05.435Z,11.50
2022-08-27T10:22:13.178Z,9.31
2022-08-27T10:23:46.799Z,9.50
2022-08-27T10:25:17.811Z,9.69
2022-08-27T10:26:25.051Z,8.75
2022-08-27T10:27:52.844Z,11.31
2022-08-27T10:29:14.677Z,12.19
2022-08-27T10:30:23.230Z,9.31
2022-08-27T10:31:38.993Z,12.50
2022-08-27T10:32:52.109Z,10.19
2022-08-27T10:33:59.501Z,11.75
2022-08-27T10:35:10.164Z,9.50
2022-08-27T10:36:39.253Z,9.81
2022-08-27T10:38:05.603Z,7.94
2022-08-27T10:39:47.256Z,8.31
2022-08-27T10:41:18.253Z,10.44
2022-08-27T10:42:28.326Z,7.81
2022-08-27T10:44:01.242Z,10.75
2022-08-27T10:45:11.408Z,10.31
2022-08-27T10:46:27.146Z,10.13
2022-08-27T10:47:43.265Z,8.44
2022-08-27T10:48:53.086Z,12.37
2022-08-27T10:50:05.965Z,9.81
2022-08-27T10:51:13.096Z,8.88
2022-08-27T10:52:21.823Z,10.56
2022-08-27T10:53:40.627Z,7.19
2022-08-27T10:54:50.221Z,5.19
2022-08-27T10:56:07.618Z,7.25
2022-08-27T10:57:53.214Z,7.31
2022-08-27T10:58:30.624Z,8.44
2022-08-27T10:59:40.241Z,6.00
2022-08-27T11:00:55.249Z,8.00
2022-08-27T11:02:18.336Z,8.75
2022-08-27T11:03:33.520Z,8.00
2022-08-27T11:04:43.641Z,2.19
2022-08-27T11:05:56.080Z,8.13
2022-08-27T11:07:10.741Z,6.31
2022-08-27T11:08:26.174Z,7.87
2022-08-27T11:09:52.647Z,7.31
2022-08-27T11:11:26.084Z,8.31
2022-08-27T11:12:14.400Z,6.00
2022-08-27T11:13:21.224Z,8.19
2022-08-27T11:16:58.027Z,6.75
2022-08-27T11:18:12.850Z,8.00
2022-08-27T11:19:28.767Z,6.56
2022-08-27T11:20:47.888Z,7.81
2022-08-27T11:22:17.181Z,6.81
2022-08-27T11:23:27.595Z,8.88
2022-08-27T11:24:35.691Z,6.87
2022-08-27T11:26:02.687Z,7.81
2022-08-27T11:27:09.397Z,8.31
2022-08-27T11:28:14.880Z,8.81
2022-08-27T11:29:24.374Z,8.56
2022-08-27T11:30:36.678Z,10.69
2022-08-27T11:31:46.420Z,8.06
2022-08-27T11:32:56.354Z,11.56
2022-08-27T11:34:28.188Z,8.75
2022-08-27T11:35:35.329Z,6.81
2022-08-27T11:37:16.030Z,6.31
2022-08-27T11:38:23.215Z,8.56
2022-08-27T11:39:52.033Z,7.50
2022-08-27T11:41:17.368Z,7.37
2022-08-27T11:42:45.447Z,5.06
2022-08-27T11:43:50.158Z,8.44
2022-08-27T11:44:57.186Z,6.69
2022-08-27T11:46:06.970Z,6.69
2022-08-27T11:47:17.270Z,8.69
2022-08-27T11:48:33.762Z,5.56
2022-08-27T11:49:49.436Z,7.75
2022-08-27T11:50:59.945Z,9.88
2022-08-27T11:52:07.926Z,10.88
2022-08-27T11:53:14.071Z,10.88
2022-08-27T11:54:33.065Z,10.00
2022-08-27T11:55:39.967Z,8.25
2022-08-27T11:56:52.794Z,12.94
2022-08-27T11:58:13.012Z,9.44
2022-08-27T11:59:31.082Z,11.25
2022-08-27T12:00:44.287Z,12.81
2022-08-27T12:01:50.615Z,10.88
2022-08-27T12:03:05.091Z,9.56
2022-08-27T12:04:37.724Z,14.06
2022-08-27T12:05:47.749Z,9.88
2022-08-27T12:06:55.039Z,13.31
2022-08-27T12:08:02.192Z,10.44
2022-08-27T12:09:08.045Z,10.25
2022-08-27T12:11:46.286Z,11.75
2022-08-27T12:11:59.240Z,9.44
2022-08-27T12:13:00.590Z,11.38
2022-08-27T12:14:33.830Z,13.81
2022-08-27T12:15:53.076Z,12.06
2022-08-27T12:17:09.364Z,7.00
2022-08-27T12:18:49.524Z,12.88
2022-08-27T12:20:11.566Z,11.19
2022-08-27T12:21:21.185Z,12.13
2022-08-27T12:22:50.731Z,10.25
2022-08-27T12:24:06.476Z,9.00
2022-08-27T12:25:26.614Z,11.19
2022-08-27T12:26:33.370Z,13.62
2022-08-27T12:27:40.455Z,9.19
2022-08-27T12:28:55.582Z,12.13
2022-08-27T12:30:02.660Z,12.44
2022-08-27T12:31:13.355Z,14.13
2022-08-27T12:32:29.809Z,13.44
2022-08-27T12:33:48.422Z,14.06
2022-08-27T12:35:10.259Z,11.63
2022-08-27T12:36:27.747Z,12.06
2022-08-27T12:37:30.027Z,10.31
2022-08-27T12:38:38.196Z,11.69
2022-08-27T12:39:44.968Z,13.25
2022-08-27T12:41:04.351Z,11.19
2022-08-27T12:42:15.832Z,10.88
2022-08-27T12:43:28.354Z,10.38
2022-08-27T12:44:34.726Z,9.63
2022-08-27T12:45:47.597Z,10.13
2022-08-27T12:46:54.994Z,11.25
2022-08-27T12:48:00.831Z,14.19
2022-08-27T12:49:35.922Z,10.25
2022-08-27T12:50:13.341Z,8.56
2022-08-27T12:51:29.529Z,11.31
2022-08-27T12:53:08.891Z,11.63
2022-08-27T12:54:35.454Z,11.06
2022-08-27T12:55:48.273Z,8.75
2022-08-27T12:57:22.300Z,12.44
2022-08-27T12:58:33.371Z,6.69
2022-08-27T12:59:46.107Z,11.81
2022-08-27T13:00:58.861Z,11.31
2022-08-27T13:02:25.382Z,13.62
2022-08-27T13:03:41.878Z,9.50
2022-08-27T13:04:47.437Z,10.50
2022-08-27T13:05:51.839Z,11.44
2022-08-27T13:06:56.409Z,10.88
2022-08-27T13:08:00.601Z,12.56
2022-08-27T13:09:08.227Z,10.13
2022-08-27T13:10:19.858Z,6.75
2022-08-27T13:11:26.979Z,11.75
2022-08-27T13:12:31.084Z,10.25
2022-08-27T13:13:37.873Z,10.31
2022-08-27T13:14:44.066Z,9.75
2022-08-27T13:15:55.446Z,9.31
2022-08-27T13:17:05.468Z,9.69
2022-08-27T13:18:12.742Z,10.44
2022-08-27T13:19:26.059Z,10.06
2022-08-27T13:20:32.126Z,12.37
2022-08-27T13:21:37.925Z,7.31
2022-08-27T13:22:42.580Z,11.31
2022-08-27T13:23:52.484Z,10.63
2022-08-27T13:24:57.837Z,10.06
2022-08-27T13:26:10.916Z,10.88
2022-08-27T13:27:15.580Z,10.13
2022-08-27T13:28:23.015Z,8.81
2022-08-27T13:29:27.842Z,7.44
2022-08-27T13:30:35.732Z,11.63
2022-08-27T13:31:39.633Z,10.13
2022-08-27T13:32:45.345Z,9.06
2022-08-27T13:33:56.437Z,8.69
2022-08-27T13:35:00.412Z,8.50
2022-08-27T13:36:06.730Z,9.94
2022-08-27T13:37:28.712Z,9.81
2022-08-27T13:38:35.717Z,7.25
2022-08-27T13:39:39.830Z,6.62
2022-08-27T13:41:07.651Z,8.13
2022-08-27T13:42:11.966Z,7.37
2022-08-27T13:43:16.876Z,5.37
2022-08-27T13:44:24.495Z,8.19
2022-08-27T13:45:28.646Z,7.31
2022-08-27T13:46:33.897Z,7.25
2022-08-27T13:47:43.835Z,11.56
2022-08-27T13:48:51.070Z,9.75
2022-08-27T13:50:07.088Z,6.94
2022-08-27T13:51:13.520Z,7.44
2022-08-27T13:52:23.247Z,2.19
2022-08-27T13:53:30.321Z,6.56
2022-08-27T13:54:35.234Z,10.69
2022-08-27T13:55:42.239Z,5.94
2022-08-27T13:56:52.028Z,7.75
2022-08-27T13:57:57.665Z,5.75
2022-08-27T13:59:14.151Z,7.50
2022-08-27T14:00:21.874Z,8.19
2022-08-27T14:01:29.008Z,8.50
2022-08-27T14:02:33.857Z,7.81
2022-08-27T14:03:41.034Z,9.13
2022-08-27T14:04:53.494Z,8.88
2022-08-27T14:05:57.647Z,10.19
2022-08-27T14:07:22.649Z,9.31
2022-08-27T14:08:32.431Z,8.06
2022-08-27T14:09:41.956Z,7.06
2022-08-27T14:10:51.582Z,9.56
2022-08-27T14:12:04.893Z,10.69
2022-08-27T14:13:13.452Z,8.69
2022-08-27T14:14:18.919Z,9.50
2022-08-27T14:15:35.010Z,13.88
2022-08-27T14:16:39.267Z,10.19
2022-08-27T14:17:43.314Z,10.88
2022-08-27T14:19:12.573Z,8.25
2022-08-27T14:20:19.766Z,10.38
2022-08-27T14:21:27.425Z,9.88
2022-08-27T14:22:31.141Z,10.50
2022-08-27T14:23:35.223Z,10.94
2022-08-27T14:24:41.416Z,8.00
2022-08-27T14:25:51.322Z,8.31
2022-08-27T14:26:57.135Z,12.19
2022-08-27T14:28:03.494Z,8.50
2022-08-27T14:29:11.734Z,9.88
2022-08-27T14:30:17.722Z,8.88
2022-08-27T14:31:22.657Z,9.44
2022-08-27T14:32:26.917Z,7.50
2022-08-27T14:33:31.330Z,10.50
2022-08-27T14:34:35.944Z,9.31
2022-08-27T14:35:41.471Z,11.31
2022-08-27T14:36:51.741Z,13.44
2022-08-27T14:38:07.225Z,8.19
2022-08-27T14:39:07.048Z,12.50
2022-08-27T14:40:20.640Z,11.19
2022-08-27T14:41:21.506Z,13.19
2022-08-27T14:42:23.808Z,5.62
2022-08-27T14:43:30.892Z,8.38
2022-08-27T14:44:38.218Z,7.62
2022-08-27T14:45:46.792Z,7.69
2022-08-27T14:46:52.323Z,8.38
2022-08-27T14:47:59.077Z,6.19
2022-08-27T14:49:04.309Z,6.94
2022-08-27T14:50:10.982Z,8.63
2022-08-27T14:51:23.220Z,6.37
2022-08-27T14:52:28.787Z,10.06
2022-08-27T14:53:34.460Z,6.50
2022-08-27T14:54:41.522Z,6.00
2022-08-27T14:55:46.793Z,8.75
2022-08-27T14:56:53.983Z,7.62
2022-08-27T14:57:58.686Z,7.75
2022-08-27T14:59:02.730Z,7.25
2022-08-27T15:00:09.690Z,6.56
2022-08-27T15:01:14.973Z,8.56
2022-08-27T15:02:20.174Z,9.44
2022-08-27T15:03:24.430Z,8.81
2022-08-27T15:04:30.674Z,8.06
2022-08-27T15:05:39.177Z,8.13
2022-08-27T15:06:45.234Z,8.69
2022-08-27T15:07:49.314Z,9.31